Terminal Aerodrome Forecast
Issued by NWS Austin/San Antonio, TX

Current Version | Previous Version | Text Only | Print | Product List | Glossary On
Versions: 1 2 3 4 5 6 7 8 9 10 11 12 13 14 15 16
000
FTUS44 KEWX 020857 AAA
TAFDRT
TAF AMD
KDRT 020857Z 0209/0306 11008KT P6SM SCT020
      TEMPO 0209/0212 BKN020
     FM021200 11007KT P6SM BKN010
     FM021600 14010KT P6SM SKC
     FM030100 11008KT P6SM FEW250=

USA.gov is the U.S. government's official web portal to all federal, state and local government web resources and services.